createdAt,value
2018-12-31T00:00:04.963Z,26.4
2018-12-31T00:00:54.957Z,26.5
2018-12-31T00:01:44.785Z,26.6
2018-12-31T00:02:33.232Z,26.6
2018-12-31T00:03:25.427Z,26.6
2018-12-31T00:04:14.482Z,26.6
2018-12-31T00:05:04.502Z,26.5
2018-12-31T00:05:56.244Z,26.4
2018-12-31T00:06:44.359Z,26.3
2018-12-31T00:07:35.750Z,26.1
2018-12-31T00:08:25.312Z,26.1
2018-12-31T00:09:14.822Z,26
2018-12-31T00:10:05.452Z,25.9
2018-12-31T00:10:55.449Z,25.8
2018-12-31T00:11:44.707Z,25.7
2018-12-31T00:12:36.314Z,25.6
2018-12-31T00:13:25.652Z,25.5
2018-12-31T00:14:15.399Z,25.4
2018-12-31T00:15:05.159Z,25.3
2018-12-31T00:33:15.501Z,26.6
2018-12-31T00:34:07.228Z,26.6
2018-12-31T00:34:57.050Z,26.5
2018-12-31T00:35:46.827Z,26.4
2018-12-31T00:36:37.440Z,26.3
2018-12-31T00:37:26.393Z,26.2
2018-12-31T00:38:16.805Z,26.1
2018-12-31T00:39:07.313Z,26.1
2018-12-31T00:39:55.242Z,25.9
2018-12-31T00:40:47.153Z,25.9
2018-12-31T00:41:36.106Z,25.8
2018-12-31T00:42:27.555Z,25.6
2018-12-31T00:43:18.152Z,25.6
2018-12-31T00:44:07.945Z,25.5
2018-12-31T00:44:57.175Z,25.4
2018-12-31T00:45:45.894Z,25.4
2018-12-31T00:46:38.182Z,25.3
2018-12-31T00:47:27.917Z,25.3
2018-12-31T00:48:17.637Z,25.3
2018-12-31T00:49:07.709Z,25.4
2018-12-31T00:49:56.969Z,25.4
2018-12-31T00:50:47.877Z,25.5
2018-12-31T00:51:37.884Z,25.6
2018-12-31T00:52:27.982Z,25.6
2018-12-31T00:53:18.018Z,25.7
2018-12-31T00:54:07.506Z,25.8
2018-12-31T00:54:58.106Z,25.9
2018-12-31T00:55:47.354Z,26
2018-12-31T00:56:38.853Z,26.1
2018-12-31T00:57:28.326Z,26.1
2018-12-31T00:58:18.895Z,26.3
2018-12-31T00:59:08.549Z,26.3
2018-12-31T00:59:59.083Z,26.4
2018-12-31T01:00:47.499Z,26.5
2018-12-31T01:01:38.593Z,26.6
2018-12-31T01:02:30.362Z,26.6
2018-12-31T01:03:17.971Z,26.7
2018-12-31T01:04:09.195Z,26.7
2018-12-31T01:04:58.598Z,26.6
2018-12-31T01:05:48.650Z,26.6
2018-12-31T01:06:38.450Z,26.5
2018-12-31T01:07:27.885Z,26.4
2018-12-31T01:08:18.033Z,26.4
2018-12-31T01:09:09.213Z,26.3
2018-12-31T01:09:59.590Z,26.3
2018-12-31T01:10:49.553Z,26.2
2018-12-31T01:11:39.300Z,26.2
2018-12-31T01:12:28.830Z,26.2
2018-12-31T01:13:19.410Z,26.2
2018-12-31T01:14:10.477Z,26.2
2018-12-31T01:14:59.528Z,26.2
2018-12-31T01:15:49.640Z,26.2
2018-12-31T01:16:39.054Z,26.3
2018-12-31T01:17:28.602Z,26.3
2018-12-31T01:18:19.465Z,26.4
2018-12-31T01:19:09.887Z,26.4
2018-12-31T01:19:59.290Z,26.5
2018-12-31T01:20:50.567Z,26.6
2018-12-31T01:21:39.139Z,26.6
2018-12-31T01:22:29.682Z,26.8
2018-12-31T01:23:20.368Z,26.8
2018-12-31T01:24:10.421Z,26.8
2018-12-31T01:25:00.226Z,26.8
2018-12-31T01:25:50.264Z,26.7
2018-12-31T01:26:39.787Z,26.6
2018-12-31T01:27:30.656Z,26.5
2018-12-31T01:28:20.521Z,26.4
2018-12-31T01:29:09.454Z,26.3
2018-12-31T01:30:01.426Z,26.2
2018-12-31T01:30:51.209Z,26.1
2018-12-31T01:31:39.631Z,26
2018-12-31T01:32:30.168Z,25.9
2018-12-31T01:33:20.794Z,25.8
2018-12-31T01:34:11.134Z,25.7
2018-12-31T01:35:01.497Z,25.6
2018-12-31T01:35:51.551Z,25.5
2018-12-31T01:36:40.989Z,25.5
2018-12-31T01:37:30.868Z,25.4
2018-12-31T01:38:21.410Z,25.4
2018-12-31T01:39:11.733Z,25.4
2018-12-31T01:40:02.081Z,25.4
2018-12-31T01:40:51.043Z,25.5
2018-12-31T01:41:42.333Z,25.6
2018-12-31T01:42:31.997Z,25.6
2018-12-31T01:43:20.730Z,25.7
2018-12-31T01:44:10.538Z,25.8
2018-12-31T01:45:00.660Z,25.9
2018-12-31T01:45:51.742Z,25.9
2018-12-31T01:46:40.660Z,26.1
2018-12-31T01:47:31.516Z,26.1
2018-12-31T01:48:21.347Z,26.3
2018-12-31T01:49:11.180Z,26.3
2018-12-31T01:50:01.900Z,26.4
2018-12-31T01:50:50.640Z,26.5
2018-12-31T01:51:42.109Z,26.6
2018-12-31T01:52:31.919Z,26.6
2018-12-31T01:53:22.477Z,26.7
2018-12-31T01:54:12.744Z,26.7
2018-12-31T01:55:02.842Z,26.7
2018-12-31T01:55:52.034Z,26.6
2018-12-31T01:56:41.826Z,26.5
2018-12-31T01:57:32.451Z,26.4
2018-12-31T01:58:22.244Z,26.3
2018-12-31T01:59:13.116Z,26.2
2018-12-31T02:00:02.414Z,26.1
2018-12-31T02:00:53.011Z,26
2018-12-31T02:01:41.636Z,25.9
2018-12-31T02:02:32.859Z,25.9
2018-12-31T02:03:22.058Z,25.7
2018-12-31T02:04:12.336Z,25.6
2018-12-31T02:05:03.256Z,25.6
2018-12-31T02:05:52.746Z,25.5
2018-12-31T02:06:42.506Z,25.4
2018-12-31T02:07:33.691Z,25.4
2018-12-31T02:08:22.643Z,25.3
2018-12-31T02:09:12.480Z,25.4
2018-12-31T02:10:03.161Z,25.4
2018-12-31T02:10:53.658Z,25.4
2018-12-31T02:11:43.225Z,25.5
2018-12-31T02:12:34.025Z,25.6
2018-12-31T02:13:23.073Z,25.7
2018-12-31T02:14:13.102Z,25.8
2018-12-31T02:15:03.117Z,25.8
2018-12-31T02:15:54.770Z,25.9
2018-12-31T02:16:43.175Z,26
2018-12-31T02:17:34.113Z,26.1
2018-12-31T02:18:23.336Z,26.2
2018-12-31T02:19:12.948Z,26.3
2018-12-31T02:20:03.658Z,26.3
2018-12-31T02:20:53.749Z,26.4
2018-12-31T02:21:44.904Z,26.5
2018-12-31T02:22:34.294Z,26.6
2018-12-31T02:23:23.954Z,26.6
2018-12-31T02:24:13.992Z,26.6
2018-12-31T02:25:04.074Z,26.6
2018-12-31T02:25:54.449Z,26.5
2018-12-31T02:26:44.252Z,26.4
2018-12-31T02:27:34.247Z,26.3
2018-12-31T02:28:24.937Z,26.2
2018-12-31T02:29:14.964Z,26.1
2018-12-31T02:30:05.119Z,26
2018-12-31T02:30:54.334Z,25.9
2018-12-31T02:31:44.910Z,25.9
2018-12-31T02:32:34.642Z,25.8
2018-12-31T02:33:25.102Z,25.7
2018-12-31T02:34:15.017Z,25.6
2018-12-31T02:35:04.578Z,25.5
2018-12-31T02:35:54.033Z,25.4
2018-12-31T02:36:44.949Z,25.4
2018-12-31T02:37:34.168Z,25.3
2018-12-31T02:38:25.156Z,25.3
2018-12-31T02:39:15.166Z,25.3
2018-12-31T02:40:06.760Z,25.4
2018-12-31T02:40:53.879Z,25.4
2018-12-31T02:41:48.026Z,25.5
2018-12-31T02:42:36.890Z,25.6
2018-12-31T02:43:24.671Z,25.6
2018-12-31T02:44:15.429Z,25.7
2018-12-31T02:45:06.990Z,25.8
2018-12-31T02:45:55.821Z,25.9
2018-12-31T02:46:45.986Z,26
2018-12-31T02:47:38.738Z,26.1
2018-12-31T02:48:26.313Z,26.2
2018-12-31T02:49:15.732Z,26.3
2018-12-31T02:50:05.608Z,26.3
2018-12-31T02:50:56.179Z,26.4
2018-12-31T02:51:46.379Z,26.4
2018-12-31T02:52:36.786Z,26.6
2018-12-31T02:53:25.300Z,26.6
2018-12-31T02:54:15.538Z,26.6
2018-12-31T02:55:07.074Z,26.6
2018-12-31T02:55:55.977Z,26.6
2018-12-31T02:56:46.328Z,26.4
2018-12-31T02:57:36.350Z,26.3
2018-12-31T02:58:26.205Z,26.3
2018-12-31T02:59:16.710Z,26.2
2018-12-31T03:00:06.687Z,26
2018-12-31T03:00:57.247Z,25.9
2018-12-31T03:01:47.470Z,25.9
2018-12-31T03:02:37.286Z,25.8
2018-12-31T03:03:27.824Z,25.7
2018-12-31T03:04:16.053Z,25.6
2018-12-31T03:05:06.938Z,25.6
2018-12-31T03:05:58.038Z,25.4
2018-12-31T03:06:46.985Z,25.4
2018-12-31T03:07:36.871Z,25.4
2018-12-31T03:08:28.074Z,25.3
2018-12-31T03:09:16.623Z,25.3
2018-12-31T03:10:06.932Z,25.3
2018-12-31T03:10:57.247Z,25.4
2018-12-31T03:11:47.581Z,25.4
2018-12-31T03:12:38.233Z,25.6
2018-12-31T03:13:26.435Z,25.6
2018-12-31T03:14:16.695Z,25.6
2018-12-31T03:15:07.645Z,25.8
2018-12-31T03:15:56.264Z,25.8
2018-12-31T03:16:47.557Z,25.8
2018-12-31T03:17:37.508Z,25.8
2018-12-31T03:18:26.995Z,25.8
2018-12-31T03:19:17.316Z,25.8
2018-12-31T03:20:08.120Z,25.7
2018-12-31T03:20:57.750Z,25.7
2018-12-31T03:21:47.199Z,25.7
2018-12-31T03:22:37.573Z,25.6
2018-12-31T03:23:28.279Z,25.6
2018-12-31T03:24:17.205Z,25.6
2018-12-31T03:25:08.213Z,25.6
2018-12-31T03:25:58.594Z,25.7
2018-12-31T03:26:47.935Z,25.6
2018-12-31T03:27:37.857Z,25.6
2018-12-31T03:28:28.975Z,25.6
2018-12-31T03:29:18.008Z,25.7
2018-12-31T03:30:09.083Z,25.8
2018-12-31T03:30:58.276Z,25.8
2018-12-31T03:31:49.360Z,25.9
2018-12-31T03:32:39.273Z,26
2018-12-31T03:33:29.362Z,26.1
2018-12-31T03:34:19.443Z,26.2
2018-12-31T03:35:09.871Z,26.2
2018-12-31T03:35:59.240Z,26.3
2018-12-31T03:36:48.748Z,26.4
2018-12-31T03:37:38.604Z,26.4
2018-12-31T03:38:29.146Z,26.5
2018-12-31T03:39:19.972Z,26.6
2018-12-31T03:40:08.976Z,26.6
2018-12-31T03:40:59.276Z,26.5
2018-12-31T03:41:49.500Z,26.4
2018-12-31T03:42:39.688Z,26.3
2018-12-31T03:43:30.021Z,26.2
2018-12-31T03:44:18.994Z,26.1
2018-12-31T03:45:09.893Z,26
2018-12-31T03:45:59.661Z,25.9
2018-12-31T03:46:49.520Z,25.8
2018-12-31T03:47:39.758Z,25.8
2018-12-31T03:48:30.366Z,25.6
2018-12-31T03:49:20.498Z,25.6
2018-12-31T03:50:10.060Z,25.5
2018-12-31T03:51:00.205Z,25.4
2018-12-31T03:51:49.204Z,25.4
2018-12-31T03:52:39.849Z,25.3
2018-12-31T03:53:30.571Z,25.3
2018-12-31T03:54:20.695Z,25.3
2018-12-31T03:55:10.607Z,25.3
2018-12-31T03:56:01.144Z,25.4
2018-12-31T03:56:52.601Z,25.5
2018-12-31T03:57:40.443Z,25.5
2018-12-31T03:58:30.433Z,25.6
2018-12-31T03:59:20.055Z,25.7
2018-12-31T04:00:10.086Z,25.8
2018-12-31T04:01:00.630Z,25.9
2018-12-31T04:01:51.303Z,25.9
2018-12-31T04:02:41.337Z,26.1
2018-12-31T04:03:31.140Z,26.1
2018-12-31T04:04:20.932Z,26.2
2018-12-31T04:05:10.748Z,26.3
2018-12-31T04:06:00.742Z,26.4
2018-12-31T04:06:51.077Z,26.4
2018-12-31T04:07:41.153Z,26.5
2018-12-31T04:08:30.671Z,26.6
2018-12-31T04:09:22.088Z,26.6
2018-12-31T04:10:11.132Z,26.6
2018-12-31T04:11:01.717Z,26.6
2018-12-31T04:11:51.974Z,26.4
2018-12-31T04:12:42.047Z,26.3
2018-12-31T04:13:31.804Z,26.3
2018-12-31T04:14:21.093Z,26.1
2018-12-31T04:15:11.931Z,26
2018-12-31T04:16:02.037Z,25.9
2018-12-31T04:16:51.518Z,25.9
2018-12-31T04:17:42.364Z,25.8
2018-12-31T04:18:32.131Z,25.6
2018-12-31T04:19:23.322Z,25.6
2018-12-31T04:20:12.277Z,25.5
2018-12-31T04:21:02.122Z,25.4
2018-12-31T04:21:52.626Z,25.4
2018-12-31T04:22:40.754Z,25.3
2018-12-31T04:23:34.543Z,25.3
2018-12-31T04:24:22.871Z,25.3
2018-12-31T04:25:13.658Z,25.3
2018-12-31T04:26:02.431Z,25.4
2018-12-31T04:26:52.199Z,25.4
2018-12-31T04:27:41.989Z,25.5
2018-12-31T04:28:32.868Z,25.6
2018-12-31T04:29:22.080Z,25.7
2018-12-31T04:30:12.200Z,25.8
2018-12-31T04:31:03.105Z,25.8
2018-12-31T04:31:52.245Z,25.9
2018-12-31T04:32:42.656Z,26.1
2018-12-31T04:33:33.262Z,26.1
2018-12-31T04:34:23.786Z,26.3
2018-12-31T04:35:13.655Z,26.3
2018-12-31T04:36:02.868Z,26.4
2018-12-31T04:36:52.883Z,26.4
2018-12-31T04:37:44.035Z,26.5
2018-12-31T04:38:33.588Z,26.6
2018-12-31T04:39:23.868Z,26.6
2018-12-31T04:40:13.151Z,26.6
2018-12-31T04:41:04.248Z,26.6
2018-12-31T04:41:54.047Z,26.6
2018-12-31T04:42:43.007Z,26.5
2018-12-31T04:43:33.613Z,26.3
2018-12-31T04:44:23.094Z,26.3
2018-12-31T04:45:13.517Z,26.1
2018-12-31T05:02:35.861Z,25.8
2018-12-31T05:03:25.131Z,26
2018-12-31T05:04:14.283Z,26.1
2018-12-31T05:05:04.740Z,26.1
2018-12-31T05:05:54.400Z,26.2
2018-12-31T05:06:44.731Z,26.3
2018-12-31T05:07:34.631Z,26.4
2018-12-31T05:08:25.408Z,26.4
2018-12-31T05:09:13.920Z,26.3
2018-12-31T05:10:04.185Z,26.3
2018-12-31T05:10:55.178Z,26.1
2018-12-31T05:11:44.280Z,26.1
2018-12-31T05:12:35.656Z,26
2018-12-31T05:13:24.925Z,25.9
2018-12-31T05:14:15.123Z,25.9
2018-12-31T05:15:04.851Z,25.9
2018-12-31T05:15:55.095Z,25.8
2018-12-31T05:16:45.708Z,25.8
2018-12-31T05:17:36.375Z,25.8
2018-12-31T05:18:25.336Z,25.9
2018-12-31T05:19:14.758Z,25.8
2018-12-31T05:20:05.717Z,25.8
2018-12-31T05:20:55.135Z,25.8
2018-12-31T05:21:45.520Z,25.8
2018-12-31T05:22:35.512Z,25.9
2018-12-31T05:23:25.129Z,25.9
2018-12-31T05:24:15.120Z,26
2018-12-31T05:25:05.967Z,26.1
2018-12-31T05:25:55.025Z,26.2
2018-12-31T05:26:46.095Z,26.3
2018-12-31T05:27:36.911Z,26.3
2018-12-31T05:28:25.645Z,26.4
2018-12-31T05:29:16.003Z,26.5
2018-12-31T05:30:06.329Z,26.5
2018-12-31T05:30:54.989Z,26.5
2018-12-31T05:31:45.632Z,26.5
2018-12-31T05:32:36.457Z,26.4
2018-12-31T05:33:27.428Z,26.3
2018-12-31T05:34:16.948Z,26.2
2018-12-31T05:35:06.962Z,26.1
2018-12-31T05:35:56.712Z,25.9
2018-12-31T05:36:46.755Z,25.9
2018-12-31T05:37:36.014Z,25.8
2018-12-31T05:38:27.239Z,25.6
2018-12-31T05:39:17.216Z,25.6
2018-12-31T05:40:07.207Z,25.5
2018-12-31T05:40:57.300Z,25.4
2018-12-31T05:41:46.831Z,25.3
2018-12-31T05:42:37.157Z,25.2
2018-12-31T05:43:26.617Z,25.2
2018-12-31T05:44:16.524Z,25.2
2018-12-31T05:45:07.125Z,25.2
2018-12-31T05:45:56.860Z,25.2
2018-12-31T05:46:47.178Z,25.3
2018-12-31T05:47:37.017Z,25.4
2018-12-31T05:48:26.493Z,25.4
2018-12-31T05:49:17.692Z,25.5
2018-12-31T05:50:08.250Z,25.6
2018-12-31T05:50:57.683Z,25.6
2018-12-31T05:51:48.048Z,25.8
2018-12-31T05:52:36.734Z,25.9
2018-12-31T05:53:27.310Z,25.9
2018-12-31T05:54:17.156Z,26
2018-12-31T05:55:08.138Z,26.1
2018-12-31T05:55:57.823Z,26.2
2018-12-31T05:56:47.056Z,26.3
2018-12-31T05:57:37.668Z,26.4
2018-12-31T05:58:28.005Z,26.4
2018-12-31T05:59:18.095Z,26.5
2018-12-31T06:00:08.110Z,26.5
2018-12-31T06:00:58.443Z,26.6
2018-12-31T06:01:47.938Z,26.6
2018-12-31T06:02:38.595Z,26.6
2018-12-31T06:03:29.422Z,26.4
2018-12-31T06:04:18.937Z,26.3
2018-12-31T06:05:08.673Z,26.2
2018-12-31T06:05:58.822Z,26.1
2018-12-31T06:06:47.982Z,25.9
2018-12-31T06:07:38.952Z,25.9
2018-12-31T06:08:28.564Z,25.8
2018-12-31T06:09:18.752Z,25.7
2018-12-31T06:10:09.337Z,25.6
2018-12-31T06:10:59.111Z,25.5
2018-12-31T06:11:49.149Z,25.4
2018-12-31T06:12:39.210Z,25.3
2018-12-31T06:13:30.377Z,25.2
2018-12-31T06:14:17.955Z,25.2
2018-12-31T06:15:10.043Z,25.2
2018-12-31T06:15:59.417Z,25.2
2018-12-31T06:16:49.265Z,25.3
2018-12-31T06:17:39.090Z,25.3
2018-12-31T06:18:29.827Z,25.4
2018-12-31T06:19:20.012Z,25.4
2018-12-31T06:20:09.244Z,25.5
2018-12-31T06:20:59.842Z,25.6
2018-12-31T06:21:49.847Z,25.7
2018-12-31T06:22:40.179Z,25.8
2018-12-31T06:23:30.554Z,25.9
2018-12-31T06:24:20.036Z,25.9
2018-12-31T06:25:09.696Z,26
2018-12-31T06:25:59.644Z,26.1
2018-12-31T06:26:50.519Z,26.2
2018-12-31T06:27:39.946Z,26.3
2018-12-31T06:28:30.339Z,26.3
2018-12-31T06:29:19.514Z,26.4
2018-12-31T06:30:09.586Z,26.5
2018-12-31T06:31:01.295Z,26.6
2018-12-31T06:31:50.521Z,26.6
2018-12-31T06:32:39.189Z,26.6
2018-12-31T06:33:30.669Z,26.6
2018-12-31T06:34:20.797Z,26.5
2018-12-31T06:35:11.391Z,26.4
2018-12-31T06:36:00.854Z,26.3
2018-12-31T06:36:50.112Z,26.1
2018-12-31T06:37:40.703Z,26
2018-12-31T06:38:30.971Z,25.9
2018-12-31T06:39:21.398Z,25.8
2018-12-31T06:40:11.111Z,25.7
2018-12-31T06:41:01.418Z,25.7
2018-12-31T06:41:50.376Z,25.6
2018-12-31T06:42:41.289Z,25.4
2018-12-31T06:43:30.540Z,25.4
2018-12-31T06:44:21.396Z,25.3
2018-12-31T06:45:11.232Z,25.3
2018-12-31T06:46:01.272Z,25.2
2018-12-31T06:46:51.970Z,25.2
2018-12-31T06:47:41.932Z,25.2
2018-12-31T06:48:30.820Z,25.3
2018-12-31T06:49:21.935Z,25.3
2018-12-31T06:50:11.232Z,25.4
2018-12-31T06:51:01.640Z,25.4
2018-12-31T06:51:51.667Z,25.5
2018-12-31T06:52:41.405Z,25.6
2018-12-31T06:53:32.023Z,25.7
2018-12-31T06:54:21.780Z,25.8
2018-12-31T06:55:11.350Z,25.9
2018-12-31T06:56:02.167Z,25.9
2018-12-31T06:56:52.235Z,26.1
2018-12-31T06:57:42.557Z,26.1
2018-12-31T06:58:33.269Z,26.3
2018-12-31T06:59:22.135Z,26.3
2018-12-31T07:00:13.286Z,26.3
2018-12-31T07:01:01.954Z,26.4
2018-12-31T07:01:51.994Z,26.4
2018-12-31T07:02:42.441Z,26.3
2018-12-31T07:03:32.716Z,26.3
2018-12-31T07:04:21.714Z,26.2
2018-12-31T07:05:13.077Z,26.1
2018-12-31T07:06:03.122Z,26.1
2018-12-31T07:06:52.956Z,26
2018-12-31T07:07:42.757Z,25.9
2018-12-31T07:08:32.196Z,25.9
2018-12-31T07:09:23.136Z,25.9
2018-12-31T07:10:12.291Z,25.9
2018-12-31T07:11:02.356Z,25.9
2018-12-31T07:11:53.243Z,25.9
2018-12-31T07:12:42.483Z,25.8
2018-12-31T07:13:34.972Z,25.9
2018-12-31T07:14:23.941Z,25.9
2018-12-31T07:15:13.993Z,25.9
2018-12-31T07:16:03.681Z,26
2018-12-31T07:16:53.625Z,26.1
2018-12-31T07:17:43.641Z,26.1
2018-12-31T07:18:32.708Z,26.2
2018-12-31T07:19:23.197Z,26.3
2018-12-31T07:20:13.399Z,26.3
2018-12-31T07:21:03.830Z,26.4
2018-12-31T07:21:53.906Z,26.4
2018-12-31T07:22:43.999Z,26.5
2018-12-31T07:23:34.332Z,26.5
2018-12-31T07:24:24.075Z,26.5
2018-12-31T07:25:13.915Z,26.5
2018-12-31T07:26:04.182Z,26.5
2018-12-31T07:26:52.913Z,26.5
2018-12-31T07:27:44.182Z,26.4
2018-12-31T07:28:34.706Z,26.4
2018-12-31T07:29:24.175Z,26.4
2018-12-31T07:30:14.045Z,26.3
2018-12-31T07:31:03.990Z,26.2
2018-12-31T07:31:54.079Z,26
2018-12-31T07:32:44.699Z,25.9
2018-12-31T07:33:34.007Z,25.8
2018-12-31T07:34:24.547Z,25.7
2018-12-31T07:35:16.717Z,25.6
2018-12-31T07:36:04.749Z,25.5
2018-12-31T07:36:54.966Z,25.4
2018-12-31T07:37:45.017Z,25.4
2018-12-31T07:38:35.050Z,25.5
2018-12-31T07:39:25.428Z,25.6
2018-12-31T07:40:14.604Z,25.6
2018-12-31T07:41:05.559Z,25.7
2018-12-31T07:41:54.184Z,25.7
2018-12-31T07:42:46.170Z,25.8
2018-12-31T07:43:35.444Z,25.8
2018-12-31T07:44:25.284Z,25.9
2018-12-31T07:45:14.971Z,25.9
2018-12-31T07:46:05.324Z,26
2018-12-31T07:46:55.090Z,26.1
2018-12-31T07:47:45.701Z,26.1
2018-12-31T07:48:35.755Z,26.2
2018-12-31T07:49:25.396Z,26.3
2018-12-31T07:50:16.171Z,26.3
2018-12-31T07:51:05.674Z,26.4
2018-12-31T07:51:56.571Z,26.4
2018-12-31T07:52:46.331Z,26.4
2018-12-31T07:53:35.903Z,26.4
2018-12-31T07:54:26.160Z,26.5
2018-12-31T07:55:16.827Z,26.5
2018-12-31T07:56:04.982Z,26.4
2018-12-31T07:56:57.100Z,26.4
2018-12-31T07:57:47.907Z,26.4
2018-12-31T07:58:35.919Z,26.4
2018-12-31T07:59:26.226Z,26.4
2018-12-31T08:00:15.800Z,26.3
2018-12-31T08:01:06.510Z,26.2
2018-12-31T08:01:56.467Z,26.1
2018-12-31T08:02:46.255Z,25.9
2018-12-31T08:03:36.765Z,25.8
2018-12-31T08:04:26.849Z,25.7
2018-12-31T08:05:16.647Z,25.6
2018-12-31T08:06:07.520Z,25.4
2018-12-31T08:06:56.977Z,25.4
2018-12-31T08:07:46.811Z,25.4
2018-12-31T08:08:37.121Z,25.5
2018-12-31T08:09:26.945Z,25.6
2018-12-31T08:10:16.707Z,25.6
2018-12-31T08:11:07.635Z,25.6
2018-12-31T08:11:57.373Z,25.7
2018-12-31T08:12:47.681Z,25.8
2018-12-31T08:13:36.941Z,25.8
2018-12-31T08:14:27.572Z,25.9
2018-12-31T08:15:17.314Z,25.9
2018-12-31T08:16:07.185Z,26
2018-12-31T08:16:57.999Z,26.1
2018-12-31T08:17:47.510Z,26.1
2018-12-31T08:18:38.447Z,26.2
2018-12-31T08:19:28.512Z,26.3
2018-12-31T08:20:17.654Z,26.3
2018-12-31T08:21:07.446Z,26.4
2018-12-31T08:21:58.059Z,26.4
2018-12-31T08:22:47.800Z,26.5
2018-12-31T08:23:38.364Z,26.6
2018-12-31T08:24:27.651Z,26.6
2018-12-31T08:25:18.641Z,26.6
2018-12-31T08:26:08.181Z,26.5
2018-12-31T08:26:58.087Z,26.5
2018-12-31T08:27:47.904Z,26.4
2018-12-31T08:28:38.211Z,26.3
2018-12-31T08:29:27.999Z,26.2
2018-12-31T08:30:20.871Z,26.1
2018-12-31T08:31:09.249Z,25.9
2018-12-31T08:31:58.999Z,25.9
2018-12-31T08:32:47.942Z,25.8
2018-12-31T08:33:38.816Z,25.6
2018-12-31T08:34:27.785Z,25.6
2018-12-31T08:35:19.228Z,25.4
2018-12-31T08:36:08.735Z,25.4
2018-12-31T08:36:59.681Z,25.4
2018-12-31T08:37:49.181Z,25.3
2018-12-31T08:38:38.367Z,25.4
2018-12-31T08:39:28.963Z,25.4
2018-12-31T08:40:19.545Z,25.5
2018-12-31T08:41:08.515Z,25.6
2018-12-31T08:41:59.200Z,25.6
2018-12-31T08:42:49.184Z,25.7
2018-12-31T08:43:38.687Z,25.8
2018-12-31T08:44:29.282Z,25.9
2018-12-31T08:45:19.665Z,25.9
2018-12-31T08:46:09.416Z,26
2018-12-31T08:46:59.517Z,26.1
2018-12-31T08:47:48.992Z,26.1
2018-12-31T08:48:39.578Z,26.3
2018-12-31T08:49:29.920Z,26.3
2018-12-31T08:50:19.968Z,26.4
2018-12-31T08:51:09.858Z,26.4
2018-12-31T08:51:59.840Z,26.5
2018-12-31T08:52:49.859Z,26.6
2018-12-31T08:53:39.079Z,26.6
2018-12-31T08:54:29.829Z,26.5
2018-12-31T08:55:22.126Z,26.4
2018-12-31T08:56:10.092Z,26.4
2018-12-31T08:57:00.982Z,26.3
2018-12-31T08:57:49.417Z,26.3
2018-12-31T08:58:40.720Z,26.2
2018-12-31T08:59:30.119Z,26.1
2018-12-31T09:00:20.379Z,26.1
2018-12-31T09:01:10.457Z,26.1
2018-12-31T09:16:58.078Z,26.4
2018-12-31T09:17:48.733Z,26.3
2018-12-31T09:18:37.715Z,26.2
2018-12-31T09:19:27.773Z,26.1
2018-12-31T09:20:18.705Z,25.9
2018-12-31T09:21:08.228Z,25.8
2018-12-31T09:21:59.235Z,25.7
2018-12-31T09:22:49.102Z,25.6
2018-12-31T09:23:39.900Z,25.5
2018-12-31T09:24:29.193Z,25.4
2018-12-31T09:25:19.484Z,25.3
2018-12-31T09:26:09.643Z,25.3
2018-12-31T09:26:59.161Z,25.3
2018-12-31T09:27:49.062Z,25.4
2018-12-31T09:28:39.205Z,25.4
2018-12-31T09:29:29.004Z,25.5
2018-12-31T09:30:19.322Z,25.6
2018-12-31T09:31:11.189Z,25.6
2018-12-31T09:31:59.717Z,25.7
2018-12-31T09:32:49.767Z,25.8
2018-12-31T09:33:38.766Z,25.9
2018-12-31T09:34:29.659Z,25.9
2018-12-31T09:35:19.654Z,26
2018-12-31T09:36:09.504Z,26.1
2018-12-31T09:36:59.829Z,26.2
2018-12-31T09:37:50.397Z,26.3
2018-12-31T09:38:39.106Z,26.3
2018-12-31T09:39:29.971Z,26.4
2018-12-31T09:40:20.071Z,26.4
2018-12-31T09:41:10.066Z,26.5
2018-12-31T09:41:59.935Z,26.5
2018-12-31T09:42:49.736Z,26.5
2018-12-31T09:43:40.229Z,26.5
2018-12-31T09:44:30.009Z,26.5
2018-12-31T09:45:19.591Z,26.5
2018-12-31T09:46:09.869Z,26.4
2018-12-31T09:47:01.036Z,26.3
2018-12-31T09:47:49.786Z,26.1
2018-12-31T09:48:40.589Z,26
2018-12-31T09:49:30.088Z,25.9
2018-12-31T09:50:20.203Z,25.8
2018-12-31T09:51:11.309Z,25.7
2018-12-31T09:52:00.987Z,25.6
2018-12-31T09:52:51.162Z,25.4
2018-12-31T09:53:40.929Z,25.4
2018-12-31T09:54:30.663Z,25.4
2018-12-31T09:55:21.471Z,25.3
2018-12-31T09:56:11.173Z,25.3
2018-12-31T09:57:01.673Z,25.4
2018-12-31T09:57:51.668Z,25.5
2018-12-31T09:58:44.392Z,25.6
2018-12-31T09:59:31.530Z,25.6
2018-12-31T10:00:21.353Z,25.6
2018-12-31T10:01:11.410Z,25.8
2018-12-31T10:02:01.744Z,25.8
2018-12-31T10:02:51.245Z,25.9
2018-12-31T10:03:41.873Z,25.9
2018-12-31T10:04:31.097Z,26
2018-12-31T10:05:22.290Z,26.1
2018-12-31T10:06:12.233Z,26.2
2018-12-31T10:07:03.000Z,26.3
2018-12-31T10:07:52.672Z,26.3
2018-12-31T10:08:50.590Z,26.4
2018-12-31T10:09:31.423Z,26.4
2018-12-31T10:10:21.990Z,26.4
2018-12-31T10:11:12.063Z,26.4
2018-12-31T10:12:02.714Z,26.4
2018-12-31T10:12:51.894Z,26.4
2018-12-31T10:13:42.993Z,26.3
2018-12-31T10:14:31.725Z,26.2
2018-12-31T10:15:23.177Z,26.1
2018-12-31T10:16:13.525Z,25.9
2018-12-31T10:17:03.302Z,25.9
2018-12-31T10:17:51.687Z,25.8
2018-12-31T10:18:43.734Z,25.7
2018-12-31T10:19:33.724Z,25.6
2018-12-31T10:20:22.667Z,25.4
2018-12-31T10:21:13.539Z,25.4
2018-12-31T10:22:02.801Z,25.3
2018-12-31T10:22:54.252Z,25.2
2018-12-31T10:23:43.764Z,25.2
2018-12-31T10:24:33.803Z,25.1
2018-12-31T10:25:23.293Z,25.2
2018-12-31T10:26:12.527Z,25.2
2018-12-31T10:27:04.569Z,25.3
2018-12-31T10:27:54.339Z,25.4
2018-12-31T10:28:44.381Z,25.4
2018-12-31T10:29:40.944Z,25.5
2018-12-31T10:30:24.460Z,25.7
2018-12-31T10:31:14.191Z,25.8
2018-12-31T10:32:03.996Z,25.8
2018-12-31T10:32:55.233Z,25.9
2018-12-31T10:33:43.659Z,26
2018-12-31T10:34:35.686Z,26.1
2018-12-31T10:35:24.013Z,26.1
2018-12-31T10:36:13.885Z,26.3
2018-12-31T10:37:04.617Z,26.3
2018-12-31T10:37:53.926Z,26.4
2018-12-31T10:38:51.010Z,26.4
2018-12-31T10:39:32.960Z,26.4
2018-12-31T10:40:24.140Z,26.4
2018-12-31T10:41:14.425Z,26.4
2018-12-31T10:42:03.410Z,26.4
2018-12-31T10:42:53.472Z,26.4
2018-12-31T10:43:44.362Z,26.4
2018-12-31T10:44:35.482Z,26.3
2018-12-31T10:45:24.630Z,26.3
2018-12-31T10:46:14.385Z,26.1
2018-12-31T10:47:04.800Z,26
2018-12-31T10:47:55.382Z,25.9
2018-12-31T10:48:45.484Z,25.8
2018-12-31T10:49:35.457Z,25.6
2018-12-31T10:50:25.825Z,25.5
2018-12-31T10:51:14.757Z,25.4
2018-12-31T10:52:05.110Z,25.3
2018-12-31T10:52:55.182Z,25.3
2018-12-31T10:53:45.010Z,25.3
2018-12-31T10:54:35.599Z,25.4
2018-12-31T10:55:25.621Z,25.4
2018-12-31T10:56:15.654Z,25.5
2018-12-31T10:57:06.226Z,25.6
2018-12-31T10:57:55.489Z,25.6
2018-12-31T10:58:46.137Z,25.7
2018-12-31T10:59:35.343Z,25.8
2018-12-31T11:00:25.714Z,25.8
2018-12-31T11:01:15.722Z,25.9
2018-12-31T11:02:06.110Z,25.9
2018-12-31T11:02:56.114Z,25.8
2018-12-31T11:03:48.226Z,25.8
2018-12-31T11:04:36.209Z,25.8
2018-12-31T11:05:26.422Z,25.7
2018-12-31T11:06:15.493Z,25.7
2018-12-31T11:07:06.731Z,25.6
2018-12-31T11:07:55.904Z,25.6
2018-12-31T11:08:47.050Z,25.6
2018-12-31T11:09:36.001Z,25.7
2018-12-31T11:10:26.963Z,25.6
2018-12-31T11:11:16.428Z,25.6
2018-12-31T11:12:05.968Z,25.6
2018-12-31T11:12:56.806Z,25.6
2018-12-31T11:13:46.567Z,25.6
2018-12-31T11:14:36.713Z,25.6
2018-12-31T11:15:27.263Z,25.7
2018-12-31T11:16:16.296Z,25.8
2018-12-31T11:17:06.573Z,25.8
2018-12-31T11:17:58.405Z,25.9
2018-12-31T11:18:46.635Z,25.9
2018-12-31T11:19:38.993Z,26.1
2018-12-31T11:20:27.125Z,26.1
2018-12-31T11:21:17.337Z,26.2
2018-12-31T11:22:07.462Z,26.3
2018-12-31T11:22:57.271Z,26.3
2018-12-31T11:23:46.962Z,26.3
2018-12-31T11:24:37.055Z,26.3
2018-12-31T11:25:28.440Z,26.3
2018-12-31T11:26:16.067Z,26.2
2018-12-31T11:27:06.918Z,26.1
2018-12-31T11:27:58.412Z,25.9
2018-12-31T11:28:47.619Z,25.8
2018-12-31T11:29:38.442Z,25.7
2018-12-31T11:30:28.100Z,25.6
2018-12-31T11:31:18.056Z,25.6
2018-12-31T11:32:07.542Z,25.4
2018-12-31T11:32:58.137Z,25.3
2018-12-31T11:33:48.737Z,25.2
2018-12-31T11:34:38.032Z,25.1
2018-12-31T11:35:27.469Z,25.1
2018-12-31T11:36:18.647Z,25.1
2018-12-31T11:37:08.439Z,25.1
2018-12-31T11:37:58.574Z,25.1
2018-12-31T11:38:48.279Z,25.3
2018-12-31T11:39:37.291Z,25.3
2018-12-31T11:40:28.200Z,25.4
2018-12-31T11:41:19.579Z,25.4
2018-12-31T11:42:08.232Z,25.5
2018-12-31T11:42:58.276Z,25.6
2018-12-31T11:43:48.869Z,25.6
2018-12-31T11:44:38.649Z,25.8
2018-12-31T11:45:29.604Z,25.9
2018-12-31T11:46:19.621Z,25.9
2018-12-31T11:47:09.910Z,26
2018-12-31T11:47:59.436Z,26.1
2018-12-31T11:48:48.969Z,26.2
2018-12-31T11:49:39.571Z,26.3
2018-12-31T11:50:29.118Z,26.3
2018-12-31T11:51:19.413Z,26.3
2018-12-31T11:52:09.440Z,26.3
2018-12-31T11:52:59.485Z,26.3
2018-12-31T11:53:49.546Z,26.2
2018-12-31T11:54:41.351Z,26.1
2018-12-31T11:55:29.211Z,25.9
2018-12-31T11:56:19.521Z,25.8